sensor_id;sensor_type;location;lat;lon;timestamp;pressure;altitude;pressure_sealevel;temperature;humidity
9521;BME280;4798;41.574;23.734;2023-05-25T00:01:38;95287.22;;;16.96;96.48
9521;BME280;4798;41.574;23.734;2023-05-25T00:04:09;95296.31;;;16.86;96.73
9521;BME280;4798;41.574;23.734;2023-05-25T00:06:44;95301.00;;;16.81;96.52
9521;BME280;4798;41.574;23.734;2023-05-25T00:09:13;95233.28;;;16.41;96.20
9521;BME280;4798;41.574;23.734;2023-05-25T00:11:42;95299.09;;;16.73;96.93
9521;BME280;4798;41.574;23.734;2023-05-25T00:14:10;95300.06;;;16.77;96.47
9521;BME280;4798;41.574;23.734;2023-05-25T00:16:38;95299.03;;;16.42;98.00
9521;BME280;4798;41.574;23.734;2023-05-25T00:19:07;95305.53;;;16.19;100.00
9521;BME280;4798;41.574;23.734;2023-05-25T00:21:36;95308.97;;;16.41;100.00
9521;BME280;4798;41.574;23.734;2023-05-25T00:24:07;95317.78;;;16.64;98.56
9521;BME280;4798;41.574;23.734;2023-05-25T00:26:35;95267.25;;;16.40;97.29
9521;BME280;4798;41.574;23.734;2023-05-25T00:29:03;95314.97;;;16.69;96.48
9521;BME280;4798;41.574;23.734;2023-05-25T00:31:33;95304.88;;;16.66;95.59
9521;BME280;4798;41.574;23.734;2023-05-25T00:34:02;95310.06;;;16.63;96.13
9521;BME280;4798;41.574;23.734;2023-05-25T00:36:32;95312.25;;;16.61;96.30
9521;BME280;4798;41.574;23.734;2023-05-25T00:39:00;95303.91;;;16.62;95.66
9521;BME280;4798;41.574;23.734;2023-05-25T00:41:30;95278.53;;;16.29;94.75
9521;BME280;4798;41.574;23.734;2023-05-25T00:43:59;95318.22;;;16.58;95.35
9521;BME280;4798;41.574;23.734;2023-05-25T00:46:27;95318.81;;;16.55;95.76
9521;BME280;4798;41.574;23.734;2023-05-25T00:48:56;95316.88;;;16.46;95.82
9521;BME280;4798;41.574;23.734;2023-05-25T00:51:25;95313.56;;;16.49;94.77
9521;BME280;4798;41.574;23.734;2023-05-25T00:53:54;95320.28;;;16.38;96.53
9521;BME280;4798;41.574;23.734;2023-05-25T00:56:25;95320.66;;;16.23;99.27
9521;BME280;4798;41.574;23.734;2023-05-25T00:59:03;95321.06;;;16.39;98.31
9521;BME280;4798;41.574;23.734;2023-05-25T01:01:34;95298.13;;;16.24;98.87
9521;BME280;4798;41.574;23.734;2023-05-25T01:04:07;95305.69;;;16.22;98.96
9521;BME280;4798;41.574;23.734;2023-05-25T01:06:38;95316.03;;;16.15;100.00
9521;BME280;4798;41.574;23.734;2023-05-25T01:09:10;95322.34;;;16.19;100.00
9521;BME280;4798;41.574;23.734;2023-05-25T01:11:42;95321.38;;;16.15;100.00
9521;BME280;4798;41.574;23.734;2023-05-25T01:14:13;95321.50;;;16.10;100.00
9521;BME280;4798;41.574;23.734;2023-05-25T01:16:45;95316.34;;;16.14;99.67
9521;BME280;4798;41.574;23.734;2023-05-25T01:19:14;95317.09;;;16.14;100.00
9521;BME280;4798;41.574;23.734;2023-05-25T01:21:46;95330.06;;;16.21;100.00
9521;BME280;4798;41.574;23.734;2023-05-25T01:24:21;95299.72;;;15.81;100.00
9521;BME280;4798;41.574;23.734;2023-05-25T01:27:16;95323.00;;;16.03;100.00
9521;BME280;4798;41.574;23.734;2023-05-25T01:29:48;95334.41;;;15.95;100.00
9521;BME280;4798;41.574;23.734;2023-05-25T01:32:17;95326.28;;;16.00;100.00
9521;BME280;4798;41.574;23.734;2023-05-25T01:34:46;95324.88;;;16.02;100.00
9521;BME280;4798;41.574;23.734;2023-05-25T01:37:17;95329.94;;;16.04;100.00
9521;BME280;4798;41.574;23.734;2023-05-25T01:39:49;95323.53;;;15.55;100.00
9521;BME280;4798;41.574;23.734;2023-05-25T01:42:17;95322.63;;;15.05;100.00
9521;BME280;4798;41.574;23.734;2023-05-25T01:44:45;95319.66;;;15.34;100.00
9521;BME280;4798;41.574;23.734;2023-05-25T01:47:20;95329.28;;;15.49;100.00
9521;BME280;4798;41.574;23.734;2023-05-25T01:49:55;95317.19;;;15.65;100.00
9521;BME280;4798;41.574;23.734;2023-05-25T01:52:32;95317.97;;;15.65;100.00
9521;BME280;4798;41.574;23.734;2023-05-25T01:55:06;95323.22;;;15.70;100.00
9521;BME280;4798;41.574;23.734;2023-05-25T01:57:36;95321.94;;;15.68;100.00
9521;BME280;4798;41.574;23.734;2023-05-25T02:00:07;95324.19;;;15.74;100.00
9521;BME280;4798;41.574;23.734;2023-05-25T02:02:37;95330.75;;;15.55;100.00
9521;BME280;4798;41.574;23.734;2023-05-25T02:05:08;95333.44;;;15.55;100.00
9521;BME280;4798;41.574;23.734;2023-05-25T02:07:38;95327.06;;;15.78;100.00
9521;BME280;4798;41.574;23.734;2023-05-25T02:10:07;95340.69;;;15.76;100.00
9521;BME280;4798;41.574;23.734;2023-05-25T02:12:35;95333.38;;;15.82;100.00
9521;BME280;4798;41.574;23.734;2023-05-25T02:15:04;95339.56;;;15.55;100.00
9521;BME280;4798;41.574;23.734;2023-05-25T02:17:33;95342.81;;;15.39;100.00
9521;BME280;4798;41.574;23.734;2023-05-25T02:20:03;95339.97;;;15.35;100.00
9521;BME280;4798;41.574;23.734;2023-05-25T02:22:32;95323.53;;;15.42;100.00
9521;BME280;4798;41.574;23.734;2023-05-25T02:25:02;95341.72;;;15.40;100.00
9521;BME280;4798;41.574;23.734;2023-05-25T02:27:31;95343.50;;;15.44;100.00
9521;BME280;4798;41.574;23.734;2023-05-25T02:30:00;95346.47;;;15.43;100.00
9521;BME280;4798;41.574;23.734;2023-05-25T02:32:28;95341.34;;;15.33;100.00
9521;BME280;4798;41.574;23.734;2023-05-25T02:34:57;95338.56;;;15.24;100.00
9521;BME280;4798;41.574;23.734;2023-05-25T02:37:25;95335.72;;;15.48;100.00
9521;BME280;4798;41.574;23.734;2023-05-25T02:39:54;95317.41;;;15.14;100.00
9521;BME280;4798;41.574;23.734;2023-05-25T02:42:24;95353.81;;;15.51;100.00
9521;BME280;4798;41.574;23.734;2023-05-25T02:44:52;95347.38;;;15.52;99.61
9521;BME280;4798;41.574;23.734;2023-05-25T02:47:20;95342.34;;;15.50;100.00
9521;BME280;4798;41.574;23.734;2023-05-25T02:49:49;95349.75;;;15.40;100.00
9521;BME280;4798;41.574;23.734;2023-05-25T02:52:18;95348.38;;;15.56;100.00
9521;BME280;4798;41.574;23.734;2023-05-25T02:54:47;95348.06;;;15.71;100.00
9521;BME280;4798;41.574;23.734;2023-05-25T02:57:15;95353.56;;;14.93;100.00
9521;BME280;4798;41.574;23.734;2023-05-25T02:59:45;95362.66;;;14.65;100.00
9521;BME280;4798;41.574;23.734;2023-05-25T03:02:13;95356.03;;;14.76;100.00
9521;BME280;4798;41.574;23.734;2023-05-25T03:04:44;95364.06;;;14.43;100.00
9521;BME280;4798;41.574;23.734;2023-05-25T03:07:12;95317.28;;;13.81;100.00
9521;BME280;4798;41.574;23.734;2023-05-25T03:09:41;95373.44;;;14.41;100.00
9521;BME280;4798;41.574;23.734;2023-05-25T03:12:09;95372.31;;;14.60;100.00
9521;BME280;4798;41.574;23.734;2023-05-25T03:14:37;95375.09;;;14.18;100.00
9521;BME280;4798;41.574;23.734;2023-05-25T03:17:07;95382.72;;;14.43;100.00
9521;BME280;4798;41.574;23.734;2023-05-25T03:19:36;95383.88;;;14.37;100.00
9521;BME280;4798;41.574;23.734;2023-05-25T03:22:04;95390.16;;;14.60;100.00
9521;BME280;4798;41.574;23.734;2023-05-25T03:24:32;95391.88;;;14.19;100.00
9521;BME280;4798;41.574;23.734;2023-05-25T03:27:01;95392.31;;;14.26;100.00
9521;BME280;4798;41.574;23.734;2023-05-25T03:29:29;95391.56;;;14.57;100.00
9521;BME280;4798;41.574;23.734;2023-05-25T03:31:57;95400.75;;;14.65;100.00
9521;BME280;4798;41.574;23.734;2023-05-25T03:34:27;95396.19;;;14.52;100.00
9521;BME280;4798;41.574;23.734;2023-05-25T03:36:56;95403.44;;;14.65;100.00
9521;BME280;4798;41.574;23.734;2023-05-25T03:39:24;95393.69;;;14.74;100.00
9521;BME280;4798;41.574;23.734;2023-05-25T03:41:53;95390.59;;;14.67;100.00
9521;BME280;4798;41.574;23.734;2023-05-25T03:44:21;95408.34;;;14.90;100.00
9521;BME280;4798;41.574;23.734;2023-05-25T03:46:50;95412.72;;;15.00;100.00
9521;BME280;4798;41.574;23.734;2023-05-25T03:49:18;95406.88;;;14.98;100.00
9521;BME280;4798;41.574;23.734;2023-05-25T03:51:48;95402.91;;;14.95;100.00
9521;BME280;4798;41.574;23.734;2023-05-25T03:54:16;95401.66;;;15.06;100.00
9521;BME280;4798;41.574;23.734;2023-05-25T03:56:44;95409.06;;;15.23;100.00
9521;BME280;4798;41.574;23.734;2023-05-25T03:59:13;95408.41;;;15.17;100.00
9521;BME280;4798;41.574;23.734;2023-05-25T04:01:41;95412.66;;;15.32;100.00
9521;BME280;4798;41.574;23.734;2023-05-25T04:04:09;95350.22;;;15.01;100.00
9521;BME280;4798;41.574;23.734;2023-05-25T04:06:38;95404.53;;;15.37;100.00
9521;BME280;4798;41.574;23.734;2023-05-25T04:09:09;95404.81;;;15.36;100.00
9521;BME280;4798;41.574;23.734;2023-05-25T04:11:38;95398.44;;;15.50;100.00
9521;BME280;4798;41.574;23.734;2023-05-25T04:14:06;95394.06;;;15.54;100.00
9521;BME280;4798;41.574;23.734;2023-05-25T04:16:34;95401.59;;;15.66;100.00
9521;BME280;4798;41.574;23.734;2023-05-25T04:19:03;95408.91;;;15.60;100.00
9521;BME280;4798;41.574;23.734;2023-05-25T04:21:31;95407.03;;;15.47;100.00
9521;BME280;4798;41.574;23.734;2023-05-25T04:24:00;95415.63;;;15.71;100.00
9521;BME280;4798;41.574;23.734;2023-05-25T04:26:29;95395.19;;;15.53;100.00
9521;BME280;4798;41.574;23.734;2023-05-25T04:28:58;95414.06;;;15.70;100.00
9521;BME280;4798;41.574;23.734;2023-05-25T04:31:27;95407.59;;;15.71;100.00
9521;BME280;4798;41.574;23.734;2023-05-25T04:33:56;95424.25;;;15.55;100.00
9521;BME280;4798;41.574;23.734;2023-05-25T04:36:25;95431.38;;;15.46;100.00
9521;BME280;4798;41.574;23.734;2023-05-25T04:38:53;95418.59;;;15.70;100.00
9521;BME280;4798;41.574;23.734;2023-05-25T04:41:22;95430.06;;;15.98;100.00
9521;BME280;4798;41.574;23.734;2023-05-25T04:43:53;95425.22;;;15.86;100.00
9521;BME280;4798;41.574;23.734;2023-05-25T04:46:33;95417.66;;;16.37;100.00
9521;BME280;4798;41.574;23.734;2023-05-25T04:49:03;95424.97;;;16.10;99.95
9521;BME280;4798;41.574;23.734;2023-05-25T04:51:31;95408.84;;;16.37;98.75
9521;BME280;4798;41.574;23.734;2023-05-25T04:54:00;95416.13;;;16.59;94.41
9521;BME280;4798;41.574;23.734;2023-05-25T04:56:28;95408.66;;;16.69;92.02
9521;BME280;4798;41.574;23.734;2023-05-25T04:58:58;95417.59;;;16.29;95.41
9521;BME280;4798;41.574;23.734;2023-05-25T05:01:26;95417.38;;;16.39;98.76
9521;BME280;4798;41.574;23.734;2023-05-25T05:03:55;95405.03;;;16.51;95.08
9521;BME280;4798;41.574;23.734;2023-05-25T05:06:24;95346.22;;;16.38;92.92
9521;BME280;4798;41.574;23.734;2023-05-25T05:08:52;95409.81;;;17.07;89.23
9521;BME280;4798;41.574;23.734;2023-05-25T05:11:20;95401.53;;;17.18;85.88
9521;BME280;4798;41.574;23.734;2023-05-25T05:13:49;95363.84;;;17.14;84.74
9521;BME280;4798;41.574;23.734;2023-05-25T05:16:19;95397.78;;;17.66;83.18
9521;BME280;4798;41.574;23.734;2023-05-25T05:18:47;95403.38;;;17.96;89.22
9521;BME280;4798;41.574;23.734;2023-05-25T05:21:15;95396.59;;;18.07;90.25
9521;BME280;4798;41.574;23.734;2023-05-25T05:23:45;95391.72;;;18.34;92.31
9521;BME280;4798;41.574;23.734;2023-05-25T05:26:15;95395.03;;;18.06;89.70
9521;BME280;4798;41.574;23.734;2023-05-25T05:28:43;95397.34;;;17.73;91.18
9521;BME280;4798;41.574;23.734;2023-05-25T05:31:11;95394.97;;;17.80;97.94
9521;BME280;4798;41.574;23.734;2023-05-25T05:33:41;95397.06;;;17.44;92.94
9521;BME280;4798;41.574;23.734;2023-05-25T05:36:10;95395.44;;;17.65;87.29
9521;BME280;4798;41.574;23.734;2023-05-25T05:38:38;95388.50;;;17.81;90.36
9521;BME280;4798;41.574;23.734;2023-05-25T05:41:07;95384.78;;;17.43;86.52
9521;BME280;4798;41.574;23.734;2023-05-25T05:43:40;95380.16;;;17.83;86.72
9521;BME280;4798;41.574;23.734;2023-05-25T05:46:09;95375.78;;;18.21;92.13
9521;BME280;4798;41.574;23.734;2023-05-25T05:48:38;95381.03;;;18.52;82.35
9521;BME280;4798;41.574;23.734;2023-05-25T05:51:07;95382.56;;;18.87;84.80
9521;BME280;4798;41.574;23.734;2023-05-25T05:53:36;95378.94;;;18.40;83.82
9521;BME280;4798;41.574;23.734;2023-05-25T05:56:05;95376.44;;;18.69;95.02
9521;BME280;4798;41.574;23.734;2023-05-25T05:58:33;95368.53;;;18.56;85.19
9521;BME280;4798;41.574;23.734;2023-05-25T06:01:02;95357.97;;;19.14;86.54
9521;BME280;4798;41.574;23.734;2023-05-25T06:03:30;95369.47;;;19.90;80.58
9521;BME280;4798;41.574;23.734;2023-05-25T06:05:58;95373.34;;;20.22;81.27
9521;BME280;4798;41.574;23.734;2023-05-25T06:08:29;95356.41;;;19.80;73.91
9521;BME280;4798;41.574;23.734;2023-05-25T06:10:57;95375.94;;;19.39;74.44
9521;BME280;4798;41.574;23.734;2023-05-25T06:13:25;95367.13;;;19.59;76.40
9521;BME280;4798;41.574;23.734;2023-05-25T06:15:54;95368.78;;;20.22;71.98
9521;BME280;4798;41.574;23.734;2023-05-25T06:18:22;95355.91;;;20.69;77.32
9521;BME280;4798;41.574;23.734;2023-05-25T06:21:00;95357.00;;;20.68;69.35
9521;BME280;4798;41.574;23.734;2023-05-25T06:23:29;95349.50;;;20.74;73.21
9521;BME280;4798;41.574;23.734;2023-05-25T06:26:02;95355.63;;;21.40;67.87
9521;BME280;4798;41.574;23.734;2023-05-25T06:28:31;95309.31;;;20.69;66.64
9521;BME280;4798;41.574;23.734;2023-05-25T06:30:59;95350.44;;;21.95;65.32
9521;BME280;4798;41.574;23.734;2023-05-25T06:33:27;95343.50;;;22.22;63.48
9521;BME280;4798;41.574;23.734;2023-05-25T06:35:56;95342.22;;;21.80;63.50
9521;BME280;4798;41.574;23.734;2023-05-25T06:38:27;95350.56;;;21.87;65.57
9521;BME280;4798;41.574;23.734;2023-05-25T06:40:56;95342.84;;;22.81;65.65
9521;BME280;4798;41.574;23.734;2023-05-25T06:43:29;95342.13;;;23.27;62.04
9521;BME280;4798;41.574;23.734;2023-05-25T06:45:58;95339.47;;;23.43;60.42
9521;BME280;4798;41.574;23.734;2023-05-25T06:48:26;95344.38;;;22.94;59.44
9521;BME280;4798;41.574;23.734;2023-05-25T06:50:54;95342.28;;;22.20;61.32
9521;BME280;4798;41.574;23.734;2023-05-25T06:53:23;95336.59;;;22.77;60.03
9521;BME280;4798;41.574;23.734;2023-05-25T06:55:51;95329.41;;;23.12;60.30
9521;BME280;4798;41.574;23.734;2023-05-25T06:58:21;95330.78;;;23.06;59.79
9521;BME280;4798;41.574;23.734;2023-05-25T07:00:49;95315.44;;;23.41;58.55
9521;BME280;4798;41.574;23.734;2023-05-25T07:03:18;95320.28;;;23.82;58.50
9521;BME280;4798;41.574;23.734;2023-05-25T07:05:46;95319.97;;;23.06;58.57
9521;BME280;4798;41.574;23.734;2023-05-25T07:08:15;95316.16;;;23.38;58.83
9521;BME280;4798;41.574;23.734;2023-05-25T07:10:43;95317.50;;;23.63;56.90
9521;BME280;4798;41.574;23.734;2023-05-25T07:13:14;95308.81;;;23.54;57.91
9521;BME280;4798;41.574;23.734;2023-05-25T07:15:44;95296.47;;;23.72;58.04
9521;BME280;4798;41.574;23.734;2023-05-25T07:18:13;95316.84;;;23.51;57.71
9521;BME280;4798;41.574;23.734;2023-05-25T07:20:42;95308.09;;;23.26;57.93
9521;BME280;4798;41.574;23.734;2023-05-25T07:23:10;95304.97;;;24.25;58.26
9521;BME280;4798;41.574;23.734;2023-05-25T07:25:39;95300.72;;;24.43;55.62
9521;BME280;4798;41.574;23.734;2023-05-25T07:28:08;95296.75;;;24.59;56.18
9521;BME280;4798;41.574;23.734;2023-05-25T07:30:38;95290.88;;;25.18;57.61
9521;BME280;4798;41.574;23.734;2023-05-25T07:33:08;95290.13;;;25.67;54.69
9521;BME280;4798;41.574;23.734;2023-05-25T07:35:37;95293.75;;;26.30;56.41
9521;BME280;4798;41.574;23.734;2023-05-25T07:38:05;95281.75;;;26.05;52.02
9521;BME280;4798;41.574;23.734;2023-05-25T07:40:33;95297.91;;;25.95;51.17
9521;BME280;4798;41.574;23.734;2023-05-25T07:43:02;95293.38;;;25.50;53.65
9521;BME280;4798;41.574;23.734;2023-05-25T07:45:34;95286.38;;;26.05;52.42
9521;BME280;4798;41.574;23.734;2023-05-25T07:48:02;95288.00;;;26.09;51.28
9521;BME280;4798;41.574;23.734;2023-05-25T07:50:34;95274.63;;;26.23;51.12
9521;BME280;4798;41.574;23.734;2023-05-25T07:53:02;95276.13;;;26.84;50.82
9521;BME280;4798;41.574;23.734;2023-05-25T07:55:31;95272.50;;;26.39;51.48
9521;BME280;4798;41.574;23.734;2023-05-25T07:57:59;95241.31;;;26.63;52.05
9521;BME280;4798;41.574;23.734;2023-05-25T08:00:27;95267.03;;;26.36;51.88
9521;BME280;4798;41.574;23.734;2023-05-25T08:02:55;95263.16;;;26.74;51.83
9521;BME280;4798;41.574;23.734;2023-05-25T08:05:24;95275.91;;;27.03;50.17
9521;BME280;4798;41.574;23.734;2023-05-25T08:07:54;95272.22;;;26.85;50.38
9521;BME280;4798;41.574;23.734;2023-05-25T08:10:22;95267.38;;;26.34;51.67
9521;BME280;4798;41.574;23.734;2023-05-25T08:12:57;95262.69;;;27.05;50.12
9521;BME280;4798;41.574;23.734;2023-05-25T08:15:25;95262.41;;;26.10;51.26
9521;BME280;4798;41.574;23.734;2023-05-25T08:17:54;95259.25;;;27.08;51.54
9521;BME280;4798;41.574;23.734;2023-05-25T08:20:23;95257.16;;;26.91;49.55
9521;BME280;4798;41.574;23.734;2023-05-25T08:22:51;95250.00;;;27.70;49.73
9521;BME280;4798;41.574;23.734;2023-05-25T08:25:22;95246.47;;;27.16;49.40
9521;BME280;4798;41.574;23.734;2023-05-25T08:27:50;95249.22;;;28.49;48.92
9521;BME280;4798;41.574;23.734;2023-05-25T08:30:18;95243.41;;;27.71;48.40
9521;BME280;4798;41.574;23.734;2023-05-25T08:32:47;95243.50;;;27.89;49.11
9521;BME280;4798;41.574;23.734;2023-05-25T08:35:15;95245.84;;;28.80;46.29
9521;BME280;4798;41.574;23.734;2023-05-25T08:37:44;95250.66;;;28.11;47.75
9521;BME280;4798;41.574;23.734;2023-05-25T08:40:15;95243.13;;;28.91;46.33
9521;BME280;4798;41.574;23.734;2023-05-25T08:42:45;95236.47;;;28.67;47.49
9521;BME280;4798;41.574;23.734;2023-05-25T08:45:13;95237.69;;;28.91;44.99
9521;BME280;4798;41.574;23.734;2023-05-25T08:48:00;95227.09;;;30.02;43.12
9521;BME280;4798;41.574;23.734;2023-05-25T08:50:29;95232.22;;;29.12;44.36
9521;BME280;4798;41.574;23.734;2023-05-25T08:53:02;95232.53;;;28.58;46.33
9521;BME280;4798;41.574;23.734;2023-05-25T08:55:33;95227.94;;;29.68;44.09
9521;BME280;4798;41.574;23.734;2023-05-25T08:58:11;95172.13;;;28.56;43.78
9521;BME280;4798;41.574;23.734;2023-05-25T09:00:46;95216.59;;;29.76;42.94
9521;BME280;4798;41.574;23.734;2023-05-25T09:03:16;95213.84;;;29.76;42.23
9521;BME280;4798;41.574;23.734;2023-05-25T09:05:45;95173.97;;;30.03;42.24
9521;BME280;4798;41.574;23.734;2023-05-25T09:08:14;95213.09;;;29.79;41.97
9521;BME280;4798;41.574;23.734;2023-05-25T09:10:43;95215.66;;;31.05;42.02
9521;BME280;4798;41.574;23.734;2023-05-25T09:13:14;95213.47;;;29.92;42.77
9521;BME280;4798;41.574;23.734;2023-05-25T09:15:45;95200.22;;;29.69;41.91
9521;BME280;4798;41.574;23.734;2023-05-25T09:18:14;95206.72;;;30.17;41.05
9521;BME280;4798;41.574;23.734;2023-05-25T09:20:42;95190.75;;;30.81;41.56
9521;BME280;4798;41.574;23.734;2023-05-25T09:23:13;95201.72;;;30.05;41.72
9521;BME280;4798;41.574;23.734;2023-05-25T09:25:42;95188.88;;;29.74;40.83
9521;BME280;4798;41.574;23.734;2023-05-25T09:28:12;95188.88;;;29.71;41.70
9521;BME280;4798;41.574;23.734;2023-05-25T09:30:44;95202.53;;;29.71;43.15
9521;BME280;4798;41.574;23.734;2023-05-25T09:33:14;95184.97;;;28.41;45.78
9521;BME280;4798;41.574;23.734;2023-05-25T09:35:44;95201.06;;;29.31;44.29
9521;BME280;4798;41.574;23.734;2023-05-25T09:38:13;95195.03;;;30.10;43.42
9521;BME280;4798;41.574;23.734;2023-05-25T09:40:43;95194.91;;;30.42;42.49
9521;BME280;4798;41.574;23.734;2023-05-25T09:43:14;95193.75;;;30.39;42.36
9521;BME280;4798;41.574;23.734;2023-05-25T09:45:58;95151.44;;;29.75;42.38
9521;BME280;4798;41.574;23.734;2023-05-25T09:48:26;95191.59;;;29.88;41.18
9521;BME280;4798;41.574;23.734;2023-05-25T09:50:56;95194.38;;;29.78;40.79
9521;BME280;4798;41.574;23.734;2023-05-25T09:53:25;95201.41;;;29.50;40.91
9521;BME280;4798;41.574;23.734;2023-05-25T09:55:55;95192.81;;;29.63;40.22
9521;BME280;4798;41.574;23.734;2023-05-25T09:58:25;95192.03;;;29.69;39.86
9521;BME280;4798;41.574;23.734;2023-05-25T10:00:53;95190.31;;;30.87;38.54
9521;BME280;4798;41.574;23.734;2023-05-25T10:03:22;95190.19;;;31.11;36.44
9521;BME280;4798;41.574;23.734;2023-05-25T10:05:51;95166.88;;;30.16;36.82
9521;BME280;4798;41.574;23.734;2023-05-25T10:08:21;95181.84;;;29.77;37.66
9521;BME280;4798;41.574;23.734;2023-05-25T10:10:54;95179.06;;;30.05;37.61
9521;BME280;4798;41.574;23.734;2023-05-25T10:13:26;95178.19;;;31.39;36.82
9521;BME280;4798;41.574;23.734;2023-05-25T10:15:56;95185.41;;;31.63;35.60
9521;BME280;4798;41.574;23.734;2023-05-25T10:18:28;95129.59;;;31.09;33.24
9521;BME280;4798;41.574;23.734;2023-05-25T10:21:02;95186.16;;;32.05;33.92
9521;BME280;4798;41.574;23.734;2023-05-25T10:23:35;95172.44;;;32.92;34.49
9521;BME280;4798;41.574;23.734;2023-05-25T10:26:07;95165.38;;;31.29;36.39
9521;BME280;4798;41.574;23.734;2023-05-25T10:28:39;95171.69;;;30.71;36.56
9521;BME280;4798;41.574;23.734;2023-05-25T10:31:08;95161.84;;;30.11;38.89
9521;BME280;4798;41.574;23.734;2023-05-25T10:33:38;95164.59;;;30.08;36.36
9521;BME280;4798;41.574;23.734;2023-05-25T10:36:07;95164.00;;;29.23;37.34
9521;BME280;4798;41.574;23.734;2023-05-25T10:38:40;95144.81;;;29.62;37.89
9521;BME280;4798;41.574;23.734;2023-05-25T10:41:10;95152.13;;;30.76;36.45
9521;BME280;4798;41.574;23.734;2023-05-25T10:43:41;95146.94;;;30.23;37.16
9521;BME280;4798;41.574;23.734;2023-05-25T10:46:10;95147.19;;;31.08;36.26
9521;BME280;4798;41.574;23.734;2023-05-25T10:48:45;95135.94;;;30.96;35.42
9521;BME280;4798;41.574;23.734;2023-05-25T10:51:14;95138.06;;;30.05;35.82
9521;BME280;4798;41.574;23.734;2023-05-25T10:53:43;95134.19;;;31.16;35.20
9521;BME280;4798;41.574;23.734;2023-05-25T10:56:12;95127.22;;;31.11;36.17
9521;BME280;4798;41.574;23.734;2023-05-25T10:58:43;95110.00;;;31.52;34.51
9521;BME280;4798;41.574;23.734;2023-05-25T11:01:14;95121.59;;;32.00;33.81
9521;BME280;4798;41.574;23.734;2023-05-25T11:03:55;95125.03;;;31.70;32.77
9521;BME280;4798;41.574;23.734;2023-05-25T11:09:27;95125.06;;;30.85;34.72
9521;BME280;4798;41.574;23.734;2023-05-25T11:12:01;95126.72;;;30.06;34.85
9521;BME280;4798;41.574;23.734;2023-05-25T11:14:32;95127.34;;;29.13;35.88
9521;BME280;4798;41.574;23.734;2023-05-25T11:17:04;95134.38;;;29.21;35.82
9521;BME280;4798;41.574;23.734;2023-05-25T11:19:44;95139.03;;;28.64;37.25
9521;BME280;4798;41.574;23.734;2023-05-25T11:22:18;95140.00;;;27.93;38.68
9521;BME280;4798;41.574;23.734;2023-05-25T11:24:47;95148.97;;;27.25;39.88
9521;BME280;4798;41.574;23.734;2023-05-25T11:27:21;95153.13;;;27.62;39.20
9521;BME280;4798;41.574;23.734;2023-05-25T11:29:51;95111.38;;;27.41;41.13
9521;BME280;4798;41.574;23.734;2023-05-25T11:32:20;95148.97;;;26.74;43.08
9521;BME280;4798;41.574;23.734;2023-05-25T11:34:50;95141.84;;;26.62;41.49
9521;BME280;4798;41.574;23.734;2023-05-25T11:37:21;94972.53;;;26.11;42.28
9521;BME280;4798;41.574;23.734;2023-05-25T11:39:51;95118.84;;;27.58;43.76
9521;BME280;4798;41.574;23.734;2023-05-25T11:42:21;95127.34;;;27.42;41.47
9521;BME280;4798;41.574;23.734;2023-05-25T11:44:51;95139.06;;;27.60;39.73
9521;BME280;4798;41.574;23.734;2023-05-25T11:47:21;95128.03;;;28.11;39.94
9521;BME280;4798;41.574;23.734;2023-05-25T11:49:54;95125.69;;;28.03;38.93
9521;BME280;4798;41.574;23.734;2023-05-25T11:52:22;95146.84;;;27.58;39.73
9521;BME280;4798;41.574;23.734;2023-05-25T11:54:51;95153.88;;;27.05;41.69
9521;BME280;4798;41.574;23.734;2023-05-25T11:57:21;95163.78;;;27.27;41.54
9521;BME280;4798;41.574;23.734;2023-05-25T11:59:54;95168.47;;;27.34;41.48
9521;BME280;4798;41.574;23.734;2023-05-25T12:02:23;95139.56;;;27.15;40.72
9521;BME280;4798;41.574;23.734;2023-05-25T12:04:52;95193.34;;;27.32;40.71
9521;BME280;4798;41.574;23.734;2023-05-25T12:07:22;95199.13;;;27.24;40.22
9521;BME280;4798;41.574;23.734;2023-05-25T12:10:03;95227.06;;;27.17;41.24
9521;BME280;4798;41.574;23.734;2023-05-25T12:12:38;95229.03;;;26.10;44.31
9521;BME280;4798;41.574;23.734;2023-05-25T12:15:10;95236.09;;;25.58;46.86
9521;BME280;4798;41.574;23.734;2023-05-25T12:17:40;95253.44;;;24.82;50.70
9521;BME280;4798;41.574;23.734;2023-05-25T12:20:10;95236.47;;;24.85;51.09
9521;BME280;4798;41.574;23.734;2023-05-25T12:22:40;95271.25;;;24.03;55.83
9521;BME280;4798;41.574;23.734;2023-05-25T12:25:10;95270.34;;;23.45;57.87
9521;BME280;4798;41.574;23.734;2023-05-25T12:27:39;95268.44;;;23.30;59.83
9521;BME280;4798;41.574;23.734;2023-05-25T12:30:10;95277.84;;;22.89;62.01
9521;BME280;4798;41.574;23.734;2023-05-25T12:32:59;95231.16;;;22.61;63.24
9521;BME280;4798;41.574;23.734;2023-05-25T12:35:43;95279.56;;;23.13;64.60
9521;BME280;4798;41.574;23.734;2023-05-25T12:38:14;95255.34;;;23.01;67.27
9521;BME280;4798;41.574;23.734;2023-05-25T12:40:42;95278.81;;;22.53;77.15
9521;BME280;4798;41.574;23.734;2023-05-25T12:43:11;95286.25;;;22.29;76.15
9521;BME280;4798;41.574;23.734;2023-05-25T12:45:41;95285.38;;;22.12;79.73
9521;BME280;4798;41.574;23.734;2023-05-25T12:48:10;95275.72;;;22.11;82.12
9521;BME280;4798;41.574;23.734;2023-05-25T12:50:55;95267.78;;;22.03;86.08
9521;BME280;4798;41.574;23.734;2023-05-25T12:53:24;95283.59;;;21.52;91.73
9521;BME280;4798;41.574;23.734;2023-05-25T12:55:59;95279.44;;;21.31;99.90
9521;BME280;4798;41.574;23.734;2023-05-25T12:58:28;95291.09;;;20.54;100.00
9521;BME280;4798;41.574;23.734;2023-05-25T13:00:58;95288.34;;;20.74;100.00
9521;BME280;4798;41.574;23.734;2023-05-25T13:03:26;95287.06;;;20.60;100.00
9521;BME280;4798;41.574;23.734;2023-05-25T13:05:59;95304.56;;;20.54;100.00
9521;BME280;4798;41.574;23.734;2023-05-25T13:08:28;95304.09;;;20.52;100.00
9521;BME280;4798;41.574;23.734;2023-05-25T13:10:56;95302.94;;;19.99;100.00
9521;BME280;4798;41.574;23.734;2023-05-25T13:13:25;95302.41;;;20.26;100.00
9521;BME280;4798;41.574;23.734;2023-05-25T13:15:54;95292.44;;;20.27;100.00
9521;BME280;4798;41.574;23.734;2023-05-25T13:18:25;95294.53;;;20.87;100.00
9521;BME280;4798;41.574;23.734;2023-05-25T13:20:53;95302.72;;;20.90;100.00
9521;BME280;4798;41.574;23.734;2023-05-25T13:23:23;95297.25;;;20.87;100.00
9521;BME280;4798;41.574;23.734;2023-05-25T13:25:51;95305.72;;;21.10;100.00